createdAt,value
2022-11-25T00:00:17.101Z,70.51
2022-11-25T00:03:10.983Z,70.46
2022-11-25T00:05:44.547Z,70.39
2022-11-25T00:08:18.611Z,70.44
2022-11-25T00:10:52.522Z,70.33
2022-11-25T00:13:26.020Z,70.44
2022-11-25T00:16:02.301Z,70.67
2022-11-25T00:18:35.839Z,70.62
2022-11-25T00:21:14.123Z,70.67
2022-11-25T00:23:52.098Z,70.53
2022-11-25T00:26:27.094Z,70.48
2022-11-25T00:29:02.518Z,70.53
2022-11-25T00:31:38.622Z,70.66
2022-11-25T00:34:15.581Z,70.52
2022-11-25T00:36:49.274Z,70.67
2022-11-25T00:39:26.069Z,70.60
2022-11-25T00:42:17.164Z,70.72
2022-11-25T00:44:50.843Z,70.75
2022-11-25T00:47:24.665Z,70.56
2022-11-25T00:49:58.345Z,70.64
2022-11-25T00:52:31.710Z,70.69
2022-11-25T00:55:06.075Z,70.70
2022-11-25T00:57:42.149Z,70.62
2022-11-25T01:00:16.903Z,70.61
2022-11-25T01:02:51.554Z,70.73
2022-11-25T01:05:25.150Z,70.54
2022-11-25T01:08:01.145Z,70.41
2022-11-25T01:10:34.612Z,70.73
2022-11-25T01:13:07.979Z,70.72
2022-11-25T01:15:42.514Z,70.60
2022-11-25T01:18:16.257Z,70.68
2022-11-25T01:20:50.438Z,70.70
2022-11-25T01:23:23.575Z,70.60
2022-11-25T01:26:02.577Z,70.59
2022-11-25T01:28:36.684Z,70.69
2022-11-25T01:31:14.715Z,70.81
2022-11-25T01:33:49.885Z,70.72
2022-11-25T01:36:23.682Z,70.83
2022-11-25T01:38:59.561Z,70.79
2022-11-25T01:41:35.162Z,70.83
2022-11-25T01:44:12.727Z,70.92
2022-11-25T01:47:00.229Z,70.80
2022-11-25T01:49:41.812Z,70.63
2022-11-25T01:52:21.552Z,70.65
2022-11-25T01:55:02.472Z,70.90
2022-11-25T01:57:41.441Z,70.94
2022-11-25T02:00:17.242Z,70.91
2022-11-25T02:02:52.247Z,71.03
2022-11-25T02:05:34.709Z,70.74
2022-11-25T02:08:10.015Z,70.85
2022-11-25T02:10:45.651Z,70.90
2022-11-25T02:13:19.030Z,70.76
2022-11-25T02:15:52.993Z,70.60
2022-11-25T02:18:29.156Z,70.62
2022-11-25T02:21:02.923Z,70.55
2022-11-25T02:23:42.462Z,70.48
2022-11-25T02:26:16.018Z,70.40
2022-11-25T02:28:50.391Z,70.44
2022-11-25T02:31:26.148Z,70.61
2022-11-25T02:33:59.640Z,70.55
2022-11-25T02:36:34.117Z,70.25
2022-11-25T02:39:08.115Z,70.27
2022-11-25T02:41:45.765Z,70.36
2022-11-25T02:44:19.069Z,70.30
2022-11-25T02:46:52.985Z,70.39
2022-11-25T02:49:27.278Z,70.49
2022-11-25T02:52:01.121Z,70.76
2022-11-25T02:54:35.902Z,70.77
2022-11-25T02:57:09.457Z,70.66
2022-11-25T02:59:43.304Z,70.63
2022-11-25T03:02:17.081Z,70.65
2022-11-25T03:04:50.721Z,70.51
2022-11-25T03:07:26.646Z,70.60
2022-11-25T03:10:00.269Z,70.46
2022-11-25T03:12:34.479Z,70.47
2022-11-25T03:15:09.711Z,70.55
2022-11-25T03:17:43.431Z,70.58
2022-11-25T03:20:17.167Z,70.47
2022-11-25T03:22:51.115Z,70.55
2022-11-25T03:25:24.987Z,70.48
2022-11-25T03:27:58.355Z,70.46
2022-11-25T03:30:32.750Z,70.39
2022-11-25T03:33:07.196Z,70.31
2022-11-25T03:35:40.936Z,70.32
2022-11-25T03:38:14.622Z,70.26
2022-11-25T03:40:50.681Z,70.38
2022-11-25T03:43:25.476Z,70.41
2022-11-25T03:45:59.542Z,70.45
2022-11-25T03:48:34.603Z,70.41
2022-11-25T03:51:08.092Z,70.52
2022-11-25T03:53:42.013Z,70.43
2022-11-25T03:56:16.148Z,70.59
2022-11-25T03:58:49.832Z,70.60
2022-11-25T04:01:23.580Z,70.67
2022-11-25T04:03:57.156Z,70.71
2022-11-25T04:06:32.516Z,70.77
2022-11-25T04:09:07.413Z,70.77
2022-11-25T04:11:58.900Z,70.74
2022-11-25T04:14:35.010Z,70.65
2022-11-25T04:17:09.152Z,70.73
2022-11-25T04:19:43.101Z,70.73
2022-11-25T04:22:16.787Z,70.72
2022-11-25T04:24:51.274Z,70.75
2022-11-25T04:27:29.068Z,70.62
2022-11-25T04:30:02.769Z,70.76
2022-11-25T04:32:38.157Z,70.78
2022-11-25T04:35:12.713Z,70.75
2022-11-25T04:37:47.712Z,70.79
2022-11-25T04:40:21.638Z,70.97
2022-11-25T04:43:06.082Z,70.81
2022-11-25T04:48:35.377Z,70.75
2022-11-25T04:51:09.759Z,70.79
2022-11-25T04:53:44.310Z,70.88
2022-11-25T04:56:21.369Z,70.92
2022-11-25T04:59:14.890Z,70.95
2022-11-25T05:01:52.226Z,71.38
2022-11-25T05:04:31.365Z,71.52
2022-11-25T05:07:05.005Z,71.65
2022-11-25T05:09:39.924Z,71.83
2022-11-25T05:12:22.494Z,71.90
2022-11-25T05:14:56.673Z,72.03
2022-11-25T05:17:31.869Z,71.81
2022-11-25T05:20:05.914Z,71.79
2022-11-25T05:22:40.449Z,71.69
2022-11-25T05:25:16.987Z,71.66
2022-11-25T05:28:02.222Z,71.62
2022-11-25T05:30:35.701Z,71.65
2022-11-25T05:33:09.024Z,71.52
2022-11-25T05:35:42.497Z,71.48
2022-11-25T05:38:16.192Z,71.51
2022-11-25T05:40:49.614Z,71.61
2022-11-25T05:43:24.227Z,71.51
2022-11-25T05:45:58.010Z,71.61
2022-11-25T05:48:32.304Z,71.37
2022-11-25T05:51:06.535Z,71.33
2022-11-25T05:53:40.191Z,71.50
2022-11-25T05:56:14.627Z,71.57
2022-11-25T05:59:08.230Z,71.69
2022-11-25T06:01:56.129Z,71.78
2022-11-25T06:04:29.950Z,71.78
2022-11-25T06:07:03.417Z,71.73
2022-11-25T06:09:37.109Z,71.62
2022-11-25T06:12:11.012Z,71.73
2022-11-25T06:14:50.077Z,71.68
2022-11-25T06:17:23.673Z,71.77
2022-11-25T06:20:03.311Z,71.73
2022-11-25T06:22:37.213Z,71.82
2022-11-25T06:25:12.324Z,71.67
2022-11-25T06:28:11.223Z,71.53
2022-11-25T06:30:41.740Z,71.49
2022-11-25T06:33:24.226Z,71.68
2022-11-25T06:35:57.632Z,71.76
2022-11-25T06:38:31.326Z,71.85
2022-11-25T06:41:06.009Z,71.87
2022-11-25T06:43:39.432Z,71.71
2022-11-25T06:46:14.089Z,71.57
2022-11-25T06:48:47.809Z,71.29
2022-11-25T06:51:21.019Z,71.33
2022-11-25T06:53:55.340Z,71.34
2022-11-25T06:56:32.940Z,71.50
2022-11-25T06:59:06.462Z,71.46
2022-11-25T07:01:40.009Z,71.44
2022-11-25T07:04:14.058Z,71.19
2022-11-25T07:06:47.707Z,71.12
2022-11-25T07:09:22.852Z,71.22
2022-11-25T07:11:56.341Z,71.25
2022-11-25T07:14:30.421Z,71.75
2022-11-25T07:17:08.799Z,71.82
2022-11-25T07:19:45.900Z,71.99
2022-11-25T07:22:19.058Z,72.00
2022-11-25T07:24:52.856Z,71.97
2022-11-25T07:27:26.521Z,71.92
2022-11-25T07:30:41.147Z,71.88
2022-11-25T07:32:54.276Z,71.88
2022-11-25T07:35:27.736Z,71.99
2022-11-25T07:38:00.908Z,71.63
2022-11-25T07:40:34.851Z,71.45
2022-11-25T07:43:08.659Z,71.57
2022-11-25T07:45:42.193Z,71.65
2022-11-25T07:48:17.495Z,71.64
2022-11-25T07:50:51.335Z,71.80
2022-11-25T07:53:25.098Z,71.58
2022-11-25T07:56:02.158Z,71.45
2022-11-25T07:58:35.569Z,71.50
2022-11-25T08:01:10.298Z,71.47
2022-11-25T08:03:46.261Z,71.41
2022-11-25T08:06:21.942Z,71.38
2022-11-25T08:08:56.981Z,71.44
2022-11-25T08:11:32.115Z,71.49
2022-11-25T08:14:05.987Z,71.12
2022-11-25T08:16:39.842Z,71.11
2022-11-25T08:19:16.064Z,71.31
2022-11-25T08:21:49.572Z,71.41
2022-11-25T08:24:23.702Z,71.68
2022-11-25T08:26:59.054Z,71.83
2022-11-25T08:29:32.236Z,71.63
2022-11-25T08:32:11.613Z,71.29
2022-11-25T08:34:45.703Z,71.33
2022-11-25T08:37:19.509Z,71.42
2022-11-25T08:39:54.591Z,71.30
2022-11-25T08:42:28.621Z,70.97
2022-11-25T08:45:02.533Z,70.69
2022-11-25T08:47:36.159Z,70.40
2022-11-25T08:50:12.145Z,70.75
2022-11-25T08:52:45.922Z,71.10
2022-11-25T08:55:19.648Z,70.89
2022-11-25T08:57:52.880Z,70.82
2022-11-25T09:00:26.940Z,70.93
2022-11-25T09:03:03.439Z,70.79
2022-11-25T09:05:40.719Z,70.78
2022-11-25T09:08:15.353Z,71.00
2022-11-25T09:10:49.276Z,70.89
2022-11-25T09:13:23.113Z,70.98
2022-11-25T09:15:56.675Z,71.10
2022-11-25T09:18:30.853Z,71.05
2022-11-25T09:21:11.933Z,70.75
2022-11-25T09:23:45.415Z,70.74
2022-11-25T09:26:25.672Z,70.54
2022-11-25T09:28:59.421Z,70.33
2022-11-25T09:31:33.310Z,70.43
2022-11-25T09:34:08.438Z,70.41
2022-11-25T09:36:41.994Z,70.35
2022-11-25T09:39:15.281Z,70.58
2022-11-25T09:42:20.737Z,70.54
2022-11-25T09:45:25.866Z,70.38
2022-11-25T09:48:10.761Z,70.30
2022-11-25T09:50:59.713Z,70.27
2022-11-25T09:53:43.584Z,70.52
2022-11-25T09:56:29.125Z,70.44
2022-11-25T09:59:08.801Z,70.44
2022-11-25T10:01:51.490Z,70.29
2022-11-25T10:04:28.828Z,70.39
2022-11-25T10:07:05.943Z,70.45
2022-11-25T10:09:39.898Z,70.28
2022-11-25T10:12:26.646Z,69.92
2022-11-25T10:15:04.552Z,70.16
2022-11-25T10:17:46.074Z,70.17
2022-11-25T10:20:22.861Z,70.30
2022-11-25T10:23:02.521Z,70.42
2022-11-25T10:25:40.868Z,70.51
2022-11-25T10:28:16.909Z,70.53
2022-11-25T10:30:56.278Z,70.82
2022-11-25T10:33:33.794Z,70.73
2022-11-25T10:36:17.225Z,70.86
2022-11-25T10:38:58.239Z,70.81
2022-11-25T10:41:34.840Z,70.73
2022-11-25T10:44:11.829Z,70.51
2022-11-25T10:50:02.113Z,70.27
2022-11-25T10:52:41.431Z,70.46
2022-11-25T10:55:17.359Z,70.68
2022-11-25T10:57:51.191Z,70.54
2022-11-25T11:00:37.681Z,70.45
2022-11-25T11:03:25.189Z,70.52
2022-11-25T11:05:59.213Z,70.37
2022-11-25T11:08:43.813Z,70.36
2022-11-25T11:11:22.921Z,70.51
2022-11-25T11:14:13.914Z,70.74
2022-11-25T11:16:56.484Z,70.86
2022-11-25T11:19:32.245Z,70.85
2022-11-25T11:22:27.273Z,70.96
2022-11-25T11:25:17.344Z,70.72
2022-11-25T11:27:51.408Z,70.45
2022-11-25T11:30:27.048Z,70.27
2022-11-25T11:33:04.880Z,70.42
2022-11-25T11:35:57.911Z,70.58
2022-11-25T11:38:38.555Z,70.57
2022-11-25T11:41:24.385Z,70.44
2022-11-25T11:44:09.394Z,70.18
2022-11-25T11:47:00.332Z,70.33
2022-11-25T11:49:49.521Z,70.57
2022-11-25T11:52:34.947Z,70.63
2022-11-25T11:55:26.365Z,70.89
2022-11-25T11:58:13.789Z,71.23
2022-11-25T12:00:53.524Z,71.08
2022-11-25T12:03:29.131Z,71.25
2022-11-25T12:06:06.520Z,71.09
2022-11-25T12:08:48.316Z,70.89
2022-11-25T12:11:25.693Z,70.86
2022-11-25T12:14:04.455Z,70.98
2022-11-25T12:16:39.482Z,70.88
2022-11-25T12:19:22.413Z,70.86
2022-11-25T12:22:02.557Z,70.88
2022-11-25T12:24:42.411Z,70.80
2022-11-25T12:27:20.714Z,70.88
2022-11-25T12:30:00.186Z,70.93
2022-11-25T12:32:58.970Z,70.91
2022-11-25T12:35:50.836Z,71.01
2022-11-25T12:38:32.508Z,71.02
2022-11-25T12:41:18.355Z,71.27
2022-11-25T12:43:57.162Z,71.36
2022-11-25T12:46:31.319Z,71.37
2022-11-25T12:49:04.947Z,71.37
2022-11-25T12:52:13.719Z,71.38
2022-11-25T12:55:14.416Z,71.37
2022-11-25T12:58:17.420Z,71.73
2022-11-25T13:01:13.911Z,72.14
2022-11-25T13:04:24.364Z,72.07
2022-11-25T13:07:31.252Z,72.16
2022-11-25T13:10:44.089Z,72.19
2022-11-25T13:13:42.775Z,72.28
2022-11-25T13:16:17.685Z,72.56
2022-11-25T13:18:52.585Z,72.61
2022-11-25T13:21:27.815Z,72.87
2022-11-25T13:24:02.747Z,72.94
2022-11-25T13:26:56.264Z,73.13
2022-11-25T13:29:59.367Z,72.76
2022-11-25T13:32:39.241Z,72.80
2022-11-25T13:35:36.581Z,72.75
2022-11-25T13:38:38.766Z,72.93
2022-11-25T13:41:45.034Z,73.10
2022-11-25T13:44:28.632Z,73.05
2022-11-25T13:47:23.209Z,73.21
2022-11-25T13:49:59.958Z,73.19
2022-11-25T13:52:38.887Z,73.10
2022-11-25T13:55:33.096Z,73.28
2022-11-25T13:58:21.085Z,73.38
2022-11-25T14:01:07.298Z,73.44
2022-11-25T14:03:56.478Z,73.57
2022-11-25T14:06:41.334Z,73.83
2022-11-25T14:09:30.286Z,73.78
2022-11-25T14:12:25.567Z,74.02
2022-11-25T14:15:15.562Z,74.07
2022-11-25T14:19:00.433Z,74.01
2022-11-25T14:21:43.729Z,74.05
2022-11-25T14:24:30.127Z,74.18
2022-11-25T14:27:05.113Z,74.13
2022-11-25T14:29:43.880Z,74.05
2022-11-25T14:32:22.841Z,74.04
2022-11-25T14:35:04.527Z,74.03
2022-11-25T14:37:43.328Z,74.06
2022-11-25T14:40:22.320Z,74.10
2022-11-25T14:43:06.436Z,73.82
2022-11-25T14:45:40.099Z,73.83
2022-11-25T14:48:22.931Z,73.97
2022-11-25T14:51:03.083Z,73.97
2022-11-25T14:53:47.870Z,74.03
2022-11-25T14:56:28.632Z,74.21
2022-11-25T14:59:02.839Z,74.10
2022-11-25T15:01:37.493Z,74.08
2022-11-25T15:04:19.589Z,74.04
2022-11-25T15:06:54.816Z,73.82
2022-11-25T15:09:30.634Z,73.74
2022-11-25T15:12:08.252Z,73.89
2022-11-25T15:14:45.210Z,74.01
2022-11-25T15:17:29.924Z,73.97
2022-11-25T15:20:11.431Z,73.77
2022-11-25T15:22:49.494Z,73.50
2022-11-25T15:25:23.352Z,73.53
2022-11-25T15:27:56.887Z,73.74
2022-11-25T15:30:32.019Z,73.78
2022-11-25T15:33:06.135Z,73.77
2022-11-25T15:35:40.199Z,73.76
2022-11-25T15:38:41.377Z,73.74
2022-11-25T15:41:29.633Z,73.63
2022-11-25T15:44:05.205Z,73.67
2022-11-25T15:46:39.486Z,73.54
2022-11-25T15:49:20.375Z,73.43
2022-11-25T15:51:58.608Z,73.39
2022-11-25T15:54:34.567Z,73.42
2022-11-25T15:57:22.350Z,73.48
2022-11-25T16:00:18.421Z,73.45
2022-11-25T16:02:57.727Z,73.38
2022-11-25T16:05:36.058Z,73.30
2022-11-25T16:08:30.654Z,73.42
2022-11-25T16:11:15.869Z,73.32
2022-11-25T16:13:51.041Z,73.30
2022-11-25T16:16:29.965Z,73.56
2022-11-25T16:19:14.849Z,73.60
2022-11-25T16:21:55.573Z,73.57
2022-11-25T16:24:42.213Z,73.48
2022-11-25T16:27:24.836Z,73.44
2022-11-25T16:30:09.920Z,73.27
2022-11-25T16:32:43.903Z,73.48
2022-11-25T16:35:21.027Z,73.56
2022-11-25T16:38:00.301Z,73.66
2022-11-25T16:40:38.644Z,73.58
2022-11-25T16:43:21.050Z,73.54
2022-11-25T16:45:57.013Z,73.42
2022-11-25T16:48:31.254Z,73.44
2022-11-25T16:51:05.037Z,73.37
2022-11-25T16:53:39.385Z,73.37
2022-11-25T16:56:17.488Z,73.50
2022-11-25T16:58:51.405Z,73.69
2022-11-25T17:01:28.521Z,73.90
2022-11-25T17:04:02.599Z,73.95
2022-11-25T17:06:38.155Z,74.13
2022-11-25T17:09:12.515Z,74.25
2022-11-25T17:11:55.262Z,74.33
2022-11-25T17:14:33.625Z,74.25
2022-11-25T17:17:09.757Z,74.39
2022-11-25T17:19:43.744Z,74.47
2022-11-25T17:22:21.773Z,74.51
2022-11-25T17:24:55.476Z,74.41
2022-11-25T17:27:34.040Z,74.40
2022-11-25T17:30:18.453Z,74.57
2022-11-25T17:32:59.445Z,74.69
2022-11-25T17:35:34.376Z,74.83
2022-11-25T17:38:16.460Z,75.03
2022-11-25T17:40:51.550Z,74.87
2022-11-25T17:43:29.207Z,74.96
2022-11-25T17:46:07.493Z,75.16
2022-11-25T17:48:42.719Z,75.30
2022-11-25T17:51:17.046Z,75.64
2022-11-25T17:53:53.872Z,75.52
2022-11-25T17:56:30.421Z,75.72
2022-11-25T17:59:10.417Z,75.76
2022-11-25T18:01:44.992Z,75.45
2022-11-25T18:04:23.228Z,75.49
2022-11-25T18:06:56.194Z,75.56
2022-11-25T18:09:32.508Z,75.52
2022-11-25T18:12:12.458Z,75.53
2022-11-25T18:14:47.641Z,75.52
2022-11-25T18:17:21.867Z,75.74
2022-11-25T18:19:57.663Z,75.63
2022-11-25T18:22:32.152Z,75.81
2022-11-25T18:25:09.485Z,75.86
2022-11-25T18:27:45.283Z,75.78
2022-11-25T18:30:24.516Z,75.48
2022-11-25T18:32:59.382Z,75.70
2022-11-25T18:35:36.980Z,75.70
2022-11-25T18:38:12.055Z,75.78
2022-11-25T18:40:53.234Z,75.53
2022-11-25T18:43:30.559Z,75.60
2022-11-25T18:46:07.846Z,75.76
2022-11-25T18:48:43.649Z,75.92
2022-11-25T18:51:18.626Z,76.02
2022-11-25T18:53:53.154Z,76.16
2022-11-25T18:56:31.196Z,76.12
2022-11-25T18:59:07.908Z,76.21
2022-11-25T19:01:48.245Z,76.13
2022-11-25T19:04:26.586Z,76.18
2022-11-25T19:07:00.615Z,76.27
2022-11-25T19:09:35.464Z,76.02
2022-11-25T19:12:13.870Z,76.10
2022-11-25T19:14:48.556Z,76.18
2022-11-25T19:17:26.990Z,76.20
2022-11-25T19:20:02.275Z,76.25
2022-11-25T19:22:37.428Z,76.28
2022-11-25T19:25:12.389Z,76.40
2022-11-25T19:27:51.981Z,76.85
2022-11-25T19:30:30.596Z,76.91
2022-11-25T19:33:06.218Z,76.80
2022-11-25T19:35:41.830Z,76.86
2022-11-25T19:38:22.711Z,77.20
2022-11-25T19:41:00.235Z,77.41
2022-11-25T19:43:34.302Z,77.33
2022-11-25T19:46:24.004Z,77.27
2022-11-25T19:49:05.348Z,77.06
2022-11-25T19:51:40.192Z,76.88
2022-11-25T19:54:19.458Z,76.82
2022-11-25T19:56:54.443Z,76.82
2022-11-25T19:59:29.669Z,76.94
2022-11-25T20:02:03.973Z,77.05
2022-11-25T20:04:41.836Z,76.95
2022-11-25T20:07:20.444Z,76.94
2022-11-25T20:09:56.936Z,77.13
2022-11-25T20:12:33.035Z,77.17
2022-11-25T20:15:10.733Z,77.30
2022-11-25T20:17:48.680Z,77.31
2022-11-25T20:20:25.878Z,77.11
2022-11-25T20:23:05.339Z,77.13
2022-11-25T20:25:49.290Z,76.96
2022-11-25T20:28:26.061Z,76.67
2022-11-25T20:31:01.380Z,76.89
2022-11-25T20:33:40.658Z,77.11
2022-11-25T20:36:19.502Z,77.11
2022-11-25T20:38:59.043Z,77.20
2022-11-25T20:41:35.620Z,77.32
2022-11-25T20:44:13.832Z,77.30
2022-11-25T20:46:48.905Z,77.14
2022-11-25T20:49:28.295Z,77.18
2022-11-25T20:52:02.709Z,77.10
2022-11-25T20:54:37.477Z,76.86
2022-11-25T20:57:16.818Z,76.83
2022-11-25T20:59:50.925Z,76.56
2022-11-25T21:02:25.742Z,76.47
2022-11-25T21:05:00.112Z,76.42
2022-11-25T21:07:35.524Z,76.47
2022-11-25T21:10:22.250Z,76.40
2022-11-25T21:12:57.170Z,76.40
2022-11-25T21:15:31.853Z,76.40
2022-11-25T21:18:06.080Z,76.31
2022-11-25T21:20:42.657Z,76.13
2022-11-25T21:23:24.314Z,76.28
2022-11-25T21:26:09.039Z,76.13
2022-11-25T21:28:46.565Z,76.14
2022-11-25T21:31:22.071Z,76.05
2022-11-25T21:34:00.532Z,75.89
2022-11-25T21:36:35.190Z,75.76
2022-11-25T21:39:16.461Z,75.92
2022-11-25T21:41:50.746Z,76.00
2022-11-25T21:44:30.716Z,75.94
2022-11-25T21:47:10.990Z,75.88
2022-11-25T21:49:45.277Z,75.72
2022-11-25T21:52:19.370Z,75.75
2022-11-25T21:54:52.991Z,75.49
2022-11-25T21:57:32.035Z,75.64
2022-11-25T22:00:06.277Z,75.60
2022-11-25T22:02:40.094Z,75.60
2022-11-25T22:05:17.863Z,75.74
2022-11-25T22:07:51.435Z,75.61
2022-11-25T22:10:25.600Z,75.68
2022-11-25T22:12:59.079Z,75.83
2022-11-25T22:15:32.827Z,75.81
2022-11-25T22:18:06.340Z,75.98
2022-11-25T22:20:41.439Z,76.03
2022-11-25T22:23:19.240Z,76.05
2022-11-25T22:25:53.900Z,75.79
2022-11-25T22:28:29.637Z,75.74
2022-11-25T22:31:07.686Z,75.90
2022-11-25T22:33:41.311Z,75.90
2022-11-25T22:36:36.171Z,76.00
2022-11-25T22:39:17.862Z,75.87
2022-11-25T22:41:53.320Z,75.89
2022-11-25T22:44:37.090Z,75.66
2022-11-25T22:47:18.106Z,75.63
2022-11-25T22:49:53.138Z,75.76
2022-11-25T22:52:30.486Z,75.66
2022-11-25T22:55:16.587Z,75.57
2022-11-25T22:57:51.186Z,75.61
2022-11-25T23:00:26.663Z,75.99
2022-11-25T23:03:01.418Z,76.19
2022-11-25T23:05:37.412Z,76.18
2022-11-25T23:08:14.512Z,76.41
2022-11-25T23:10:48.723Z,76.54
2022-11-25T23:13:23.128Z,76.37
2022-11-25T23:15:57.875Z,76.22
2022-11-25T23:18:38.200Z,76.20
2022-11-25T23:21:19.035Z,76.29
2022-11-25T23:23:53.449Z,76.41
2022-11-25T23:26:33.623Z,76.13
2022-11-25T23:29:09.269Z,76.13
2022-11-25T23:31:43.292Z,76.22
2022-11-25T23:34:17.077Z,76.16
2022-11-25T23:36:51.822Z,76.22
2022-11-25T23:39:27.220Z,76.28
2022-11-25T23:42:00.903Z,76.37
2022-11-25T23:44:34.763Z,76.61
2022-11-25T23:47:15.812Z,76.59
2022-11-25T23:49:52.603Z,76.66
2022-11-25T23:52:28.342Z,76.75
2022-11-25T23:55:01.781Z,76.91
2022-11-25T23:57:36.703Z,76.73
